Time;durP1;ratioP1;P1;durP2;ratioP2;P2;SDS_P1;SDS_P2;PMS_P1;PMS_P2;Temp;Humidity;BMP_temperature;BMP_pressure;BME280_temperature;BME280_humidity;BME280_pressure;Samples;Min_cycle;Max_cycle;Signal;HPM_P1;HPM_P2
2022/10/30 00:06:44;;;;;;;19.77;10.80;;;;;;;13.66;100.00;100699.34;20915169;28;20052;-78
2022/10/30 00:16:45;;;;;;;20.17;11.40;;;;;;;13.66;100.00;100695.84;20913688;28;20053;-81
2022/10/30 00:26:46;;;;;;;19.55;11.07;;;;;;;13.66;100.00;100691.44;20913422;28;20049;-76
2022/10/30 00:36:48;;;;;;;22.48;11.15;;;;;;;13.68;100.00;100688.75;20911515;28;20057;-77
2022/10/30 00:46:49;;;;;;;22.77;11.90;;;;;;;13.77;100.00;100670.13;20991926;28;20507;-78
2022/10/30 00:56:51;;;;;;;20.63;11.73;;;;;;;13.79;100.00;100684.94;20996398;28;20082;-78
2022/10/30 01:06:52;;;;;;;22.30;12.05;;;;;;;13.74;100.00;100667.56;20995765;28;20048;-77
2022/10/30 01:16:54;;;;;;;19.75;11.60;;;;;;;13.76;100.00;100671.03;20992052;28;20052;-76
2022/10/30 01:26:55;;;;;;;19.55;10.90;;;;;;;13.69;100.00;100670.28;20990529;28;20510;-81
2022/10/30 01:36:56;;;;;;;18.60;10.25;;;;;;;13.63;100.00;100664.31;21010907;22;20110;-82
2022/10/30 01:46:58;;;;;;;21.20;10.85;;;;;;;13.57;100.00;100650.41;21037606;28;20052;-81
2022/10/30 01:56:59;;;;;;;19.65;11.43;;;;;;;13.47;100.00;100662.06;21017979;28;20544;-78
2022/10/30 02:07:00;;;;;;;22.13;11.55;;;;;;;13.38;100.00;100653.53;21021750;28;20059;-77
2022/10/30 02:17:02;;;;;;;21.45;11.48;;;;;;;13.20;100.00;100653.00;21011960;28;20056;-78
2022/10/30 02:27:03;;;;;;;18.35;11.25;;;;;;;13.01;100.00;100649.03;21031849;28;20095;-78
2022/10/30 02:37:05;;;;;;;22.25;11.10;;;;;;;12.89;100.00;100644.03;21028201;28;20540;-78
2022/10/30 02:47:06;;;;;;;22.23;11.30;;;;;;;12.78;100.00;100652.16;21005347;28;20174;-80
2022/10/30 02:57:07;;;;;;;19.83;11.45;;;;;;;12.64;100.00;100651.56;21006209;28;20044;-79
2022/10/30 03:07:08;;;;;;;26.88;11.80;;;;;;;12.52;100.00;100653.56;21018222;28;20049;-80
2022/10/30 03:17:10;;;;;;;21.90;11.50;;;;;;;12.49;100.00;100650.13;21025636;28;20052;-81
2022/10/30 03:27:11;;;;;;;21.60;12.20;;;;;;;12.45;100.00;100649.31;21035972;28;20048;-80
2022/10/30 03:37:13;;;;;;;19.58;11.25;;;;;;;12.35;100.00;100658.25;21046553;28;20140;-80
2022/10/30 03:47:14;;;;;;;18.98;11.40;;;;;;;12.26;100.00;100658.41;20957638;28;20060;-80
2022/10/30 03:57:15;;;;;;;18.45;10.48;;;;;;;12.10;100.00;100651.72;20958228;28;20493;-80
2022/10/30 04:07:17;;;;;;;18.92;10.65;;;;;;;12.00;100.00;100645.78;20959163;28;20142;-80
2022/10/30 04:17:18;;;;;;;22.38;9.93;;;;;;;11.97;100.00;100662.44;20880602;28;20060;-80
2022/10/30 04:27:19;;;;;;;19.48;10.18;;;;;;;11.89;100.00;100653.84;20850954;28;20049;-80
2022/10/30 04:37:21;;;;;;;15.52;9.23;;;;;;;11.79;100.00;100650.47;20847616;28;20049;-80
2022/10/30 04:47:22;;;;;;;22.20;10.35;;;;;;;11.71;100.00;100648.88;21011217;28;20074;-79
2022/10/30 04:57:24;;;;;;;17.38;9.38;;;;;;;11.60;100.00;100638.56;21011068;28;20135;-80
2022/10/30 05:07:25;;;;;;;19.98;9.27;;;;;;;11.68;100.00;100647.16;21008472;28;20071;-80
2022/10/30 05:17:27;;;;;;;20.30;10.13;;;;;;;11.62;100.00;100641.16;21005753;28;20076;-80
2022/10/30 05:27:28;;;;;;;25.10;11.05;;;;;;;11.49;100.00;100643.94;21002695;28;20055;-83
2022/10/30 05:37:29;;;;;;;20.95;9.32;;;;;;;11.37;100.00;100638.06;21004047;28;20049;-80
2022/10/30 05:47:31;;;;;;;20.02;10.00;;;;;;;11.25;100.00;100660.03;20926332;28;20060;-80
2022/10/30 05:57:32;;;;;;;21.70;10.25;;;;;;;11.05;100.00;100658.56;20927156;28;20079;-79
2022/10/30 06:07:33;;;;;;;16.02;9.63;;;;;;;11.03;100.00;100652.50;20932107;28;20060;-82
2022/10/30 06:17:35;;;;;;;19.33;9.95;;;;;;;10.98;100.00;100670.03;21002101;28;20488;-81
2022/10/30 06:27:36;;;;;;;15.93;8.82;;;;;;;10.92;100.00;100671.84;21003564;28;20052;-76
2022/10/30 06:37:38;;;;;;;23.00;9.25;;;;;;;10.94;100.00;100670.97;20985034;28;20435;-76
2022/10/30 06:47:39;;;;;;;21.60;9.40;;;;;;;11.11;100.00;100677.72;20984857;28;20053;-76
2022/10/30 06:57:41;;;;;;;21.42;11.43;;;;;;;11.24;100.00;100680.16;20985095;28;20126;-77
2022/10/30 07:07:42;;;;;;;21.75;11.25;;;;;;;11.44;100.00;100677.25;20852841;28;20161;-77
2022/10/30 07:17:44;;;;;;;16.33;10.20;;;;;;;11.66;100.00;100676.94;20833948;28;20468;-76
2022/10/30 07:27:45;;;;;;;22.27;11.23;;;;;;;11.82;100.00;100687.16;20852881;28;20049;-76
2022/10/30 07:37:46;;;;;;;21.75;11.65;;;;;;;12.09;100.00;100692.00;20893489;22;20049;-75
2022/10/30 07:47:47;;;;;;;23.52;10.32;;;;;;;12.43;100.00;100695.75;20883188;28;20124;-74
2022/10/30 07:57:49;;;;;;;19.90;11.13;;;;;;;12.74;100.00;100698.66;20833018;28;20060;-73
2022/10/30 08:07:50;;;;;;;19.33;9.50;;;;;;;13.01;100.00;100697.22;20829226;28;20046;-73
2022/10/30 08:17:51;;;;;;;18.73;10.00;;;;;;;13.30;100.00;100703.66;20828969;28;20131;-73
2022/10/30 08:27:53;;;;;;;19.15;9.90;;;;;;;13.53;100.00;100696.09;20829113;28;20486;-74
2022/10/30 08:37:55;;;;;;;29.38;11.00;;;;;;;13.91;100.00;100694.34;20831783;28;20052;-74
2022/10/30 08:47:57;;;;;;;20.17;10.65;;;;;;;14.13;100.00;100684.09;20909952;28;20053;-73
2022/10/30 08:57:59;;;;;;;18.55;10.35;;;;;;;14.45;100.00;100693.81;20905275;28;20053;-74
2022/10/30 09:08:00;;;;;;;23.35;10.23;;;;;;;15.00;100.00;100694.94;20906695;28;20060;-74
2022/10/30 09:18:02;;;;;;;24.20;12.18;;;;;;;15.38;100.00;100692.94;20906978;28;20044;-75
2022/10/30 09:28:04;;;;;;;17.83;7.97;;;;;;;15.73;100.00;100690.97;20905186;28;20052;-74
2022/10/30 09:38:05;;;;;;;19.55;8.15;;;;;;;15.98;100.00;100689.25;20898860;28;20129;-73
2022/10/30 09:48:06;;;;;;;13.75;7.07;;;;;;;16.22;100.00;100694.63;20822227;28;20045;-73
2022/10/30 09:58:08;;;;;;;15.88;6.82;;;;;;;16.42;100.00;100700.94;20820868;28;20053;-75
2022/10/30 10:08:09;;;;;;;14.40;7.03;;;;;;;16.70;100.00;100699.09;20817620;28;20082;-74
2022/10/30 10:18:11;;;;;;;16.02;7.55;;;;;;;16.97;100.00;100691.97;20819332;28;20072;-73
2022/10/30 10:28:12;;;;;;;14.68;6.18;;;;;;;17.14;100.00;100692.19;20818169;28;20069;-74
2022/10/30 10:38:14;;;;;;;32.90;21.50;;;;;;;17.41;100.00;100691.13;20824318;28;20056;-75
2022/10/30 10:48:15;;;;;;;17.58;8.30;;;;;;;17.82;100.00;100669.22;20898176;28;20045;-74
2022/10/30 10:58:17;;;;;;;25.08;14.32;;;;;;;18.13;100.00;100667.00;20899510;28;20068;-74
2022/10/30 11:08:18;;;;;;;16.52;6.45;;;;;;;18.50;100.00;100668.06;20899288;28;20104;-74
2022/10/30 11:18:19;;;;;;;13.43;6.57;;;;;;;18.47;100.00;100665.53;20900834;28;20049;-75
2022/10/30 11:28:21;;;;;;;15.20;5.50;;;;;;;18.44;100.00;100663.00;20902170;28;20485;-74
2022/10/30 11:38:22;;;;;;;13.90;5.60;;;;;;;18.28;100.00;100659.31;20956402;28;20052;-76
2022/10/30 11:48:23;;;;;;;14.82;5.95;;;;;;;18.31;100.00;100653.91;20981498;28;20137;-76
2022/10/30 11:58:26;;;;;;;14.15;5.55;;;;;;;18.40;100.00;100650.84;20993716;28;20146;-76
2022/10/30 12:08:27;;;;;;;13.75;6.18;;;;;;;18.49;100.00;100639.81;20994865;28;20045;-76
2022/10/30 12:18:29;;;;;;;14.70;5.32;;;;;;;18.75;100.00;100637.81;20994628;28;20110;-75
2022/10/30 12:28:30;;;;;;;16.85;5.32;;;;;;;18.88;100.00;100623.06;20993901;28;20110;-76
2022/10/30 12:38:31;;;;;;;12.45;6.10;;;;;;;19.09;100.00;100607.91;20982640;28;20401;-76
2022/10/30 12:48:35;;;;;;;15.95;4.72;;;;;;;18.93;100.00;100606.00;20910737;28;20057;-76
2022/10/30 12:58:37;;;;;;;19.93;8.93;;;;;;;19.07;100.00;100602.69;20908588;28;20452;-73
2022/10/30 13:08:38;;;;;;;12.48;5.50;;;;;;;19.17;100.00;100603.97;20987780;28;20306;-75
2022/10/30 13:18:40;;;;;;;10.73;5.10;;;;;;;19.42;100.00;100594.81;20989178;28;20122;-75
2022/10/30 13:28:41;;;;;;;12.10;4.68;;;;;;;19.61;100.00;100587.69;20987684;28;20480;-75
2022/10/30 13:38:42;;;;;;;10.77;4.30;;;;;;;19.66;100.00;100590.09;20975592;28;20095;-75
2022/10/30 13:48:44;;;;;;;9.45;3.70;;;;;;;19.48;100.00;100595.34;20904077;28;20477;-75
2022/10/30 13:58:45;;;;;;;11.30;4.88;;;;;;;19.41;100.00;100591.28;20903684;28;20567;-76
2022/10/30 14:08:46;;;;;;;13.82;4.78;;;;;;;19.32;100.00;100588.22;20902884;28;20083;-75
2022/10/30 14:18:48;;;;;;;13.88;4.32;;;;;;;19.16;100.00;100586.31;20902078;28;20390;-75
2022/10/30 14:28:49;;;;;;;9.60;3.97;;;;;;;19.14;100.00;100588.19;20899386;28;20089;-75
2022/10/30 14:38:50;;;;;;;15.60;5.82;;;;;;;19.03;100.00;100579.88;20899858;28;20049;-75
2022/10/30 14:48:52;;;;;;;12.40;4.97;;;;;;;19.08;100.00;100582.31;20901173;28;20079;-75
2022/10/30 14:58:53;;;;;;;11.10;5.47;;;;;;;18.88;100.00;100585.94;20899566;28;20060;-75
2022/10/30 15:08:55;;;;;;;14.50;6.30;;;;;;;18.69;100.00;100592.09;20898509;28;20136;-76
2022/10/30 15:18:56;;;;;;;11.68;6.82;;;;;;;18.51;100.00;100582.28;20898527;28;20056;-75
2022/10/30 15:28:57;;;;;;;13.40;5.80;;;;;;;18.31;100.00;100580.53;20905069;28;20053;-76
2022/10/30 15:38:59;;;;;;;12.13;6.28;;;;;;;18.04;100.00;100582.59;20899785;28;20053;-76
2022/10/30 15:49:00;;;;;;;15.23;6.57;;;;;;;17.75;100.00;100580.34;20831189;28;20490;-75
2022/10/30 15:59:01;;;;;;;16.60;6.53;;;;;;;17.42;100.00;100588.75;20831260;28;20522;-75
2022/10/30 16:09:03;;;;;;;16.77;8.30;;;;;;;17.07;100.00;100579.59;20857084;28;20076;-76
2022/10/30 16:19:04;;;;;;;18.02;8.55;;;;;;;16.75;100.00;100580.84;20903760;28;20061;-75
2022/10/30 16:29:05;;;;;;;14.95;8.77;;;;;;;16.44;100.00;100581.97;20820005;28;20088;-75
2022/10/30 16:39:07;;;;;;;14.38;7.20;;;;;;;16.08;100.00;100590.28;20832556;28;20041;-75
2022/10/30 16:49:08;;;;;;;15.65;7.40;;;;;;;15.81;100.00;100607.06;20818671;28;20052;-75
2022/10/30 16:59:09;;;;;;;14.77;6.25;;;;;;;15.56;100.00;100615.78;20817767;28;20112;-75
2022/10/30 17:09:11;;;;;;;10.82;5.57;;;;;;;15.14;100.00;100625.97;20816799;28;20061;-75
2022/10/30 17:19:12;;;;;;;14.02;6.03;;;;;;;15.04;100.00;100646.47;20896222;28;20064;-75
2022/10/30 17:29:13;;;;;;;15.70;7.20;;;;;;;14.91;100.00;100653.00;20897584;28;20057;-75
2022/10/30 17:39:15;;;;;;;13.88;7.25;;;;;;;14.72;100.00;100665.00;20879718;28;20045;-76
2022/10/30 17:49:16;;;;;;;16.13;7.43;;;;;;;14.55;100.00;100676.00;20887255;28;20113;-75
2022/10/30 17:59:17;;;;;;;17.77;9.25;;;;;;;14.45;100.00;100672.72;20976741;28;20057;-75
2022/10/30 18:09:19;;;;;;;17.77;8.15;;;;;;;14.27;100.00;100681.97;20954653;28;20460;-75
2022/10/30 18:19:20;;;;;;;15.82;7.30;;;;;;;14.16;100.00;100704.25;20893376;28;20512;-71
2022/10/30 18:29:21;;;;;;;17.67;9.23;;;;;;;14.03;100.00;100707.16;20894096;28;20434;-72
2022/10/30 18:39:23;;;;;;;16.25;9.00;;;;;;;13.82;100.00;100715.59;20871794;28;20052;-72
2022/10/30 18:49:28;;;;;;;25.50;12.52;;;;;;;13.69;100.00;100716.78;20824333;28;20057;-72
2022/10/30 18:59:29;;;;;;;21.23;10.45;;;;;;;13.62;100.00;100731.00;20886717;28;20053;-72
2022/10/30 19:09:30;;;;;;;18.70;9.45;;;;;;;13.46;100.00;100744.50;20887849;28;20068;-72
2022/10/30 19:19:31;;;;;;;18.80;9.13;;;;;;;13.39;100.00;100739.41;20845046;28;20048;-72
2022/10/30 19:29:33;;;;;;;19.20;10.63;;;;;;;13.23;100.00;100755.53;20886942;28;20129;-72
2022/10/30 19:39:34;;;;;;;28.63;16.02;;;;;;;13.15;100.00;100752.16;20885446;28;20559;-72
2022/10/30 19:49:35;;;;;;;26.67;15.18;;;;;;;12.99;100.00;100743.72;20971453;28;20067;-72
2022/10/30 19:59:37;;;;;;;34.90;19.23;;;;;;;12.95;100.00;100759.56;20970478;28;20151;-73
2022/10/30 20:09:38;;;;;;;25.25;13.60;;;;;;;12.91;100.00;100753.50;20968060;28;20168;-73
2022/10/30 20:19:39;;;;;;;25.75;11.32;;;;;;;12.90;100.00;100762.28;20899820;28;20119;-72
2022/10/30 20:29:41;;;;;;;28.95;12.35;;;;;;;12.86;100.00;100778.16;20895378;28;20114;-73
2022/10/30 20:39:42;;;;;;;19.42;11.82;;;;;;;12.77;100.00;100782.66;20899591;28;20080;-73
2022/10/30 20:49:44;;;;;;;20.00;10.40;;;;;;;12.74;100.00;100787.09;20898199;28;20116;-73
2022/10/30 20:59:45;;;;;;;20.05;10.15;;;;;;;12.69;100.00;100786.31;20897679;28;20103;-72
2022/10/30 21:09:46;;;;;;;15.82;8.50;;;;;;;12.54;100.00;100790.97;20894687;28;20052;-75
2022/10/30 21:19:48;;;;;;;18.73;9.48;;;;;;;12.49;100.00;100800.69;20815211;28;20098;-72
2022/10/30 21:29:49;;;;;;;17.73;9.77;;;;;;;12.42;100.00;100801.69;20937351;28;20328;-73
2022/10/30 21:39:50;;;;;;;17.27;8.23;;;;;;;12.28;100.00;100798.44;20959338;28;20562;-74
2022/10/30 21:49:52;;;;;;;14.55;7.15;;;;;;;12.16;100.00;100803.88;20902169;28;20445;-74
2022/10/30 21:59:53;;;;;;;20.45;7.90;;;;;;;12.04;100.00;100803.16;20899966;28;20045;-78
2022/10/30 22:09:54;;;;;;;17.67;7.95;;;;;;;11.94;100.00;100809.47;20895726;28;20057;-83
2022/10/30 22:19:56;;;;;;;13.00;7.65;;;;;;;11.81;100.00;100802.59;20863858;28;20104;-85
2022/10/30 22:29:57;;;;;;;15.13;7.97;;;;;;;11.76;100.00;100796.56;20895561;28;20048;-77
2022/10/30 22:39:59;;;;;;;15.60;7.78;;;;;;;11.65;100.00;100788.84;20872393;28;20045;-80
2022/10/30 22:50:00;;;;;;;13.40;6.90;;;;;;;11.60;100.00;100789.81;20813418;28;20045;-78
2022/10/30 23:00:01;;;;;;;15.00;7.93;;;;;;;11.54;100.00;100791.59;20813778;28;20049;-77
2022/10/30 23:10:03;;;;;;;17.73;7.35;;;;;;;11.46;100.00;100796.09;20818740;28;20099;-81
2022/10/30 23:20:04;;;;;;;12.13;6.53;;;;;;;11.41;100.00;100779.56;20817984;28;20599;-80
2022/10/30 23:30:06;;;;;;;15.93;6.88;;;;;;;11.35;100.00;100786.63;20817187;28;20502;-77
2022/10/30 23:40:07;;;;;;;15.23;6.90;;;;;;;11.33;100.00;100789.28;20840734;28;20433;-78
2022/10/30 23:50:08;;;;;;;14.00;7.32;;;;;;;11.30;100.00;100782.28;20907390;28;20359;-78
